Time,TemperatureF,DewpointF,PressureIn,WindDirection,WindDirectionDegrees,WindSpeedMPH,WindSpeedGustMPH,Humidity,HourlyPrecipIn,Conditions,Clouds,dailyrainin,SoftwareType,DateUTC
2013-08-28 00:01:00,72.0,68.9,30.06,SW,225,0.0,0.0,90,0.00,,,0.00,Wunderground v.1.15,2013-08-28 04:01:00,
2013-08-28 00:05:00,71.8,68.7,30.06,SW,225,0.0,0.0,90,0.00,,,0.00,Wunderground v.1.15,2013-08-28 04:05:00,
2013-08-28 00:11:00,71.6,68.8,30.06,SW,225,0.0,1.0,91,0.00,,,0.00,Wunderground v.1.15,2013-08-28 04:11:00,
2013-08-28 00:18:00,71.6,68.8,30.06,SW,226,1.0,2.0,91,0.00,,,0.00,Wunderground v.1.15,2013-08-28 04:18:00,
2013-08-28 00:21:00,71.6,68.8,30.06,SW,225,1.0,1.0,91,0.00,,,0.00,Wunderground v.1.15,2013-08-28 04:21:00,
2013-08-28 00:27:00,71.6,68.8,30.06,SW,225,0.0,1.0,91,0.00,,,0.00,Wunderground v.1.15,2013-08-28 04:27:00,
2013-08-28 00:33:00,71.6,68.8,30.06,SW,224,0.0,1.0,91,0.00,,,0.00,Wunderground v.1.15,2013-08-28 04:33:00,
2013-08-28 00:39:00,71.4,68.6,30.06,SW,224,0.0,0.0,91,0.00,,,0.00,Wunderground v.1.15,2013-08-28 04:39:00,
2013-08-28 00:45:00,71.2,68.8,30.06,SW,224,0.0,0.0,92,0.00,,,0.00,Wunderground v.1.15,2013-08-28 04:45:00,
2013-08-28 00:52:00,71.0,68.6,30.06,SW,225,0.0,1.0,92,0.00,,,0.00,Wunderground v.1.15,2013-08-28 04:52:00,
2013-08-28 00:57:00,70.8,68.4,30.06,SW,225,0.0,1.0,92,0.00,,,0.00,Wunderground v.1.15,2013-08-28 04:57:00,
2013-08-28 01:04:00,70.9,68.5,30.06,SW,225,0.0,1.0,92,0.00,,,0.00,Wunderground v.1.15,2013-08-28 05:04:00,
2013-08-28 01:09:00,71.1,68.7,30.06,SW,225,0.0,1.0,92,0.00,,,0.00,Wunderground v.1.15,2013-08-28 05:09:00,
2013-08-28 01:15:00,71.1,68.7,30.06,SW,226,0.0,1.0,92,0.00,,,0.00,Wunderground v.1.15,2013-08-28 05:15:00,
2013-08-28 01:21:00,71.0,68.6,30.06,SW,225,0.0,1.0,92,0.00,,,0.00,Wunderground v.1.15,2013-08-28 05:21:00,
2013-08-28 01:27:00,71.0,68.6,30.06,SW,225,0.0,1.0,92,0.00,,,0.00,Wunderground v.1.15,2013-08-28 05:27:00,
2013-08-28 01:33:00,71.1,68.7,30.06,SW,225,0.0,1.0,92,0.00,,,0.00,Wunderground v.1.15,2013-08-28 05:33:00,
2013-08-28 01:39:00,71.2,68.8,30.06,SW,225,0.0,1.0,92,0.00,,,0.00,Wunderground v.1.15,2013-08-28 05:39:00,
2013-08-28 01:46:00,71.4,69.0,30.06,SW,226,0.0,1.0,92,0.00,,,0.00,Wunderground v.1.15,2013-08-28 05:46:00,
2013-08-28 01:52:00,71.4,69.0,30.06,SW,225,0.0,1.0,92,0.00,,,0.00,Wunderground v.1.15,2013-08-28 05:52:00,
2013-08-28 01:57:00,71.4,69.0,30.05,SW,225,0.0,1.0,92,0.00,,,0.00,Wunderground v.1.15,2013-08-28 05:57:00,
2013-08-28 02:03:00,71.5,68.7,30.05,SW,226,0.0,1.0,91,0.00,,,0.00,Wunderground v.1.15,2013-08-28 06:03:00,
2013-08-28 02:09:00,71.3,68.9,30.05,SW,225,0.0,1.0,92,0.00,,,0.00,Wunderground v.1.15,2013-08-28 06:09:00,
2013-08-28 02:15:00,71.1,68.7,30.05,SW,225,0.0,1.0,92,0.00,,,0.00,Wunderground v.1.15,2013-08-28 06:15:00,
2013-08-28 02:21:00,71.1,68.7,30.04,SW,225,0.0,1.0,92,0.00,,,0.00,Wunderground v.1.15,2013-08-28 06:21:00,
2013-08-28 02:28:00,71.2,69.1,30.04,SW,226,0.0,1.0,93,0.00,,,0.00,Wunderground v.1.15,2013-08-28 06:28:00,
2013-08-28 02:33:00,71.5,69.1,30.04,SW,226,0.0,1.0,92,0.00,,,0.00,Wunderground v.1.15,2013-08-28 06:33:00,
2013-08-28 02:40:00,71.3,68.9,30.04,SW,225,0.0,1.0,92,0.00,,,0.00,Wunderground v.1.15,2013-08-28 06:40:00,
2013-08-28 02:45:00,71.0,68.6,30.04,SW,225,0.0,1.0,92,0.00,,,0.00,Wunderground v.1.15,2013-08-28 06:45:00,
2013-08-28 02:51:00,70.7,68.3,30.03,SW,226,0.0,1.0,92,0.00,,,0.00,Wunderground v.1.15,2013-08-28 06:51:00,
2013-08-28 02:57:00,70.6,68.5,30.03,SW,225,0.0,1.0,93,0.00,,,0.00,Wunderground v.1.15,2013-08-28 06:57:00,
2013-08-28 03:03:00,70.5,68.4,30.03,SW,226,0.0,1.0,93,0.00,,,0.00,Wunderground v.1.15,2013-08-28 07:03:00,
2013-08-28 03:09:00,70.6,68.8,30.03,SW,225,0.0,1.0,94,0.00,,,0.00,Wunderground v.1.15,2013-08-28 07:09:00,
2013-08-28 03:16:00,70.6,68.8,30.03,SW,225,0.0,1.0,94,0.00,,,0.00,Wunderground v.1.15,2013-08-28 07:16:00,
2013-08-28 03:21:00,70.5,68.7,30.03,SW,225,0.0,1.0,94,0.00,,,0.00,Wunderground v.1.15,2013-08-28 07:21:00,
2013-08-28 03:28:00,70.4,68.3,30.03,SW,225,0.0,1.0,93,0.00,,,0.00,Wunderground v.1.15,2013-08-28 07:28:00,
2013-08-28 03:33:00,70.3,68.2,30.03,SW,225,0.0,1.0,93,0.00,,,0.00,Wunderground v.1.15,2013-08-28 07:33:00,
2013-08-28 03:39:00,70.1,68.3,30.03,SW,226,0.0,1.0,94,0.00,,,0.00,Wunderground v.1.15,2013-08-28 07:39:00,
2013-08-28 03:45:00,70.0,68.2,30.03,SW,225,0.0,1.0,94,0.00,,,0.00,Wunderground v.1.15,2013-08-28 07:45:00,
2013-08-28 03:51:00,70.0,68.2,30.03,SW,225,0.0,1.0,94,0.00,,,0.00,Wunderground v.1.15,2013-08-28 07:51:00,
2013-08-28 03:57:00,70.0,68.2,30.02,SW,225,0.0,1.0,94,0.00,,,0.00,Wunderground v.1.15,2013-08-28 07:57:00,
2013-08-28 04:04:00,70.1,68.6,30.02,SW,225,0.0,1.0,95,0.00,,,0.00,Wunderground v.1.15,2013-08-28 08:04:00,
2013-08-28 04:10:00,70.1,68.3,30.02,SW,226,0.0,1.0,94,0.00,,,0.00,Wunderground v.1.15,2013-08-28 08:10:00,
2013-08-28 04:16:00,69.9,68.1,30.02,SW,225,0.0,1.0,94,0.00,,,0.00,Wunderground v.1.15,2013-08-28 08:16:00,
2013-08-28 04:21:00,69.7,67.9,30.02,SW,225,0.0,1.0,94,0.00,,,0.00,Wunderground v.1.15,2013-08-28 08:21:00,
2013-08-28 04:27:00,70.0,68.5,30.02,SW,225,0.0,1.0,95,0.00,,,0.00,Wunderground v.1.15,2013-08-28 08:27:00,
2013-08-28 04:33:00,69.7,67.9,30.02,SW,225,0.0,1.0,94,0.00,,,0.00,Wunderground v.1.15,2013-08-28 08:33:00,
2013-08-28 04:39:00,69.7,68.2,30.02,SW,225,0.0,1.0,95,0.00,,,0.00,Wunderground v.1.15,2013-08-28 08:39:00,
2013-08-28 04:45:00,69.6,68.1,30.02,SW,225,0.0,1.0,95,0.00,,,0.00,Wunderground v.1.15,2013-08-28 08:45:00,
2013-08-28 04:52:00,69.6,68.1,30.03,SW,225,0.0,1.0,95,0.00,,,0.00,Wunderground v.1.15,2013-08-28 08:52:00,
2013-08-28 04:57:00,69.3,67.5,30.03,SW,226,0.0,2.0,94,0.00,,,0.00,Wunderground v.1.15,2013-08-28 08:57:00,
2013-08-28 05:04:00,69.4,67.9,30.03,SW,226,0.0,1.0,95,0.00,,,0.00,Wunderground v.1.15,2013-08-28 09:04:00,
2013-08-28 05:09:00,69.4,67.9,30.03,SW,221,0.0,1.0,95,0.00,,,0.00,Wunderground v.1.15,2013-08-28 09:09:00,
2013-08-28 05:15:00,69.5,68.0,30.03,SW,219,0.0,1.0,95,0.00,,,0.00,Wunderground v.1.15,2013-08-28 09:15:00,
2013-08-28 05:21:00,69.5,68.0,30.03,SW,217,0.0,1.0,95,0.00,,,0.00,Wunderground v.1.15,2013-08-28 09:21:00,
2013-08-28 05:27:00,69.3,67.8,30.03,SSW,212,0.0,1.0,95,0.00,,,0.00,Wunderground v.1.15,2013-08-28 09:27:00,
2013-08-28 05:33:00,69.2,67.7,30.04,SW,214,0.0,1.0,95,0.00,,,0.00,Wunderground v.1.15,2013-08-28 09:33:00,
2013-08-28 05:40:00,69.5,68.0,30.03,SW,214,0.0,1.0,95,0.00,,,0.00,Wunderground v.1.15,2013-08-28 09:40:00,
2013-08-28 05:41:00,69.6,68.1,30.03,SW,214,0.0,1.0,95,0.00,,,0.00,Wunderground v.1.15,2013-08-28 09:41:00,
2013-08-28 05:48:00,69.7,68.2,30.04,SSW,213,0.0,1.0,95,0.00,,,0.00,Wunderground v.1.15,2013-08-28 09:48:00,
2013-08-28 05:53:00,69.8,68.3,30.04,SSW,213,0.0,1.0,95,0.00,,,0.00,Wunderground v.1.15,2013-08-28 09:53:00,
2013-08-28 06:19:00,69.8,68.3,30.04,SSW,208,0.0,2.0,95,0.00,,,0.00,Wunderground v.1.15,2013-08-28 10:19:00,
2013-08-28 06:25:00,69.9,68.4,30.04,SSW,197,1.0,3.0,95,0.00,,,0.00,Wunderground v.1.15,2013-08-28 10:25:00,
2013-08-28 06:31:00,69.9,68.1,30.04,SSW,210,1.0,1.0,94,0.00,,,0.00,Wunderground v.1.15,2013-08-28 10:31:00,
2013-08-28 06:37:00,69.8,68.0,30.05,SSW,211,1.0,1.0,94,0.00,,,0.00,Wunderground v.1.15,2013-08-28 10:37:00,
2013-08-28 06:43:00,69.7,67.9,30.05,SSW,211,0.0,1.0,94,0.00,,,0.00,Wunderground v.1.15,2013-08-28 10:43:00,
2013-08-28 06:49:00,69.4,67.6,30.05,SW,214,0.0,0.0,94,0.00,,,0.00,Wunderground v.1.15,2013-08-28 10:49:00,
2013-08-28 06:55:00,69.4,67.9,30.05,SW,214,0.0,0.0,95,0.00,,,0.00,Wunderground v.1.15,2013-08-28 10:55:00,
2013-08-28 07:01:00,69.4,67.9,30.05,SW,214,0.0,1.0,95,0.00,,,0.00,Wunderground v.1.15,2013-08-28 11:01:00,
2013-08-28 07:07:00,69.3,67.8,30.05,SW,214,0.0,1.0,95,0.00,,,0.00,Wunderground v.1.15,2013-08-28 11:07:00,
2013-08-28 07:13:00,69.3,67.8,30.06,SW,214,0.0,1.0,95,0.00,,,0.00,Wunderground v.1.15,2013-08-28 11:13:00,
2013-08-28 07:19:00,69.4,67.9,30.06,SW,214,0.0,1.0,95,0.00,,,0.00,Wunderground v.1.15,2013-08-28 11:19:00,
2013-08-28 07:25:00,69.4,67.9,30.06,SW,214,0.0,1.0,95,0.00,,,0.00,Wunderground v.1.15,2013-08-28 11:25:00,
2013-08-28 07:31:00,69.4,67.9,30.06,SW,214,0.0,1.0,95,0.00,,,0.00,Wunderground v.1.15,2013-08-28 11:31:00,
2013-08-28 07:37:00,69.5,68.0,30.06,SW,214,0.0,1.0,95,0.00,,,0.00,Wunderground v.1.15,2013-08-28 11:37:00,
2013-08-28 07:43:00,69.6,68.1,30.06,SW,214,0.0,1.0,95,0.00,,,0.00,Wunderground v.1.15,2013-08-28 11:43:00,
2013-08-28 07:49:00,69.8,68.3,30.06,SW,214,0.0,1.0,95,0.00,,,0.00,Wunderground v.1.15,2013-08-28 11:49:00,
2013-08-28 07:55:00,70.0,68.5,30.06,SW,215,0.0,1.0,95,0.00,,,0.00,Wunderground v.1.15,2013-08-28 11:55:00,
2013-08-28 08:01:00,70.2,68.7,30.06,SW,214,0.0,1.0,95,0.00,,,0.00,Wunderground v.1.15,2013-08-28 12:01:00,
2013-08-28 08:07:00,70.5,69.0,30.06,SSW,203,1.0,1.0,95,0.00,,,0.00,Wunderground v.1.15,2013-08-28 12:07:00,
2013-08-28 08:14:00,70.9,69.1,30.06,SSW,205,1.0,1.0,94,0.00,,,0.00,Wunderground v.1.15,2013-08-28 12:14:00,
2013-08-28 08:19:00,71.3,69.5,30.06,SSW,197,1.0,3.0,94,0.00,,,0.00,Wunderground v.1.15,2013-08-28 12:19:00,
2013-08-28 08:25:00,71.5,69.7,30.06,SE,145,2.0,4.0,94,0.00,,,0.00,Wunderground v.1.15,2013-08-28 12:25:00,
2013-08-28 08:31:00,71.7,69.6,30.06,SSE,156,2.0,2.0,93,0.00,,,0.00,Wunderground v.1.15,2013-08-28 12:31:00,
2013-08-28 08:38:00,71.9,69.8,30.06,SSW,201,3.0,4.0,93,0.00,,,0.00,Wunderground v.1.15,2013-08-28 12:38:00,
2013-08-28 08:44:00,72.0,69.9,30.05,South,182,3.0,4.0,93,0.00,,,0.00,Wunderground v.1.15,2013-08-28 12:44:00,
2013-08-28 08:49:00,72.3,69.8,30.05,South,187,2.0,3.0,92,0.00,,,0.00,Wunderground v.1.15,2013-08-28 12:49:00,
2013-08-28 08:56:00,72.4,69.9,30.05,South,176,2.0,3.0,92,0.00,,,0.00,Wunderground v.1.15,2013-08-28 12:56:00,
2013-08-28 09:01:00,72.8,70.3,30.05,South,177,2.0,3.0,92,0.00,,,0.00,Wunderground v.1.15,2013-08-28 13:01:00,
2013-08-28 09:07:00,73.1,70.6,30.05,South,187,2.0,3.0,92,0.00,,,0.00,Wunderground v.1.15,2013-08-28 13:07:00,
2013-08-28 09:13:00,73.3,70.5,30.05,South,179,3.0,3.0,91,0.00,,,0.00,Wunderground v.1.15,2013-08-28 13:13:00,
2013-08-28 09:19:00,73.7,70.9,30.05,SSW,193,2.0,2.0,91,0.00,,,0.00,Wunderground v.1.15,2013-08-28 13:19:00,
2013-08-28 09:25:00,74.4,70.9,30.05,SSE,166,1.0,2.0,89,0.00,,,0.00,Wunderground v.1.15,2013-08-28 13:25:00,
2013-08-28 09:31:00,75.4,71.6,30.06,East,89,1.0,2.0,88,0.00,,,0.00,Wunderground v.1.15,2013-08-28 13:31:00,
2013-08-28 09:37:00,75.5,71.7,30.06,East,88,1.0,2.0,88,0.00,,,0.00,Wunderground v.1.15,2013-08-28 13:37:00,
2013-08-28 09:43:00,75.8,72.0,30.06,East,83,1.0,2.0,88,0.00,,,0.00,Wunderground v.1.15,2013-08-28 13:43:00,
2013-08-28 09:49:00,75.8,71.7,30.06,ENE,58,2.0,3.0,87,0.00,,,0.00,Wunderground v.1.15,2013-08-28 13:49:00,
2013-08-28 09:55:00,76.2,72.4,30.06,ENE,63,3.0,3.0,88,0.00,,,0.00,Wunderground v.1.15,2013-08-28 13:55:00,
2013-08-28 10:01:00,76.6,72.4,30.05,ENE,63,2.0,2.0,87,0.00,,,0.00,Wunderground v.1.15,2013-08-28 14:01:00,
2013-08-28 10:07:00,76.9,72.4,30.05,ENE,63,2.0,3.0,86,0.00,,,0.00,Wunderground v.1.15,2013-08-28 14:07:00,
2013-08-28 10:13:00,76.8,72.3,30.05,East,94,3.0,4.0,86,0.00,,,0.00,Wunderground v.1.15,2013-08-28 14:13:00,
2013-08-28 10:19:00,77.1,72.6,30.05,ENE,73,3.0,4.0,86,0.00,,,0.00,Wunderground v.1.15,2013-08-28 14:19:00,
2013-08-28 10:26:00,76.5,72.3,30.05,East,84,3.0,6.0,87,0.00,,,0.00,Wunderground v.1.15,2013-08-28 14:26:00,
2013-08-28 10:31:00,76.6,72.4,30.05,SSE,159,3.0,4.0,87,0.00,,,0.00,Wunderground v.1.15,2013-08-28 14:31:00,
2013-08-28 10:37:00,76.8,72.6,30.05,ENE,78,2.0,4.0,87,0.00,,,0.00,Wunderground v.1.15,2013-08-28 14:37:00,
2013-08-28 10:43:00,77.4,72.9,30.06,East,83,2.0,3.0,86,0.00,,,0.00,Wunderground v.1.15,2013-08-28 14:43:00,
2013-08-28 10:49:00,77.6,72.7,30.06,ENE,69,3.0,3.0,85,0.00,,,0.00,Wunderground v.1.15,2013-08-28 14:49:00,
2013-08-28 10:55:00,77.7,72.8,30.06,ENE,73,3.0,3.0,85,0.00,,,0.00,Wunderground v.1.15,2013-08-28 14:55:00,
2013-08-28 11:01:00,78.1,73.6,30.06,ENE,68,2.0,3.0,86,0.00,,,0.00,Wunderground v.1.15,2013-08-28 15:01:00,
2013-08-28 11:07:00,78.4,73.5,30.06,ENE,66,1.0,3.0,85,0.00,,,0.00,Wunderground v.1.15,2013-08-28 15:07:00,
2013-08-28 11:14:00,79.3,73.3,30.06,SW,220,0.0,2.0,82,0.00,,,0.00,Wunderground v.1.15,2013-08-28 15:14:00,
2013-08-28 11:19:00,80.1,73.0,30.06,NW,322,0.0,1.0,79,0.00,,,0.00,Wunderground v.1.15,2013-08-28 15:19:00,
2013-08-28 11:25:00,81.0,73.1,30.06,WNW,292,0.0,1.0,77,0.00,,,0.00,Wunderground v.1.15,2013-08-28 15:25:00,
2013-08-28 11:31:00,81.2,72.9,30.06,NNW,337,1.0,2.0,76,0.00,,,0.00,Wunderground v.1.15,2013-08-28 15:31:00,
2013-08-28 11:37:00,81.3,73.4,30.06,SW,224,1.0,2.0,77,0.00,,,0.00,Wunderground v.1.15,2013-08-28 15:37:00,
2013-08-28 11:44:00,81.5,72.8,30.06,NW,321,2.0,4.0,75,0.00,,,0.00,Wunderground v.1.15,2013-08-28 15:44:00,
2013-08-28 11:49:00,81.1,73.6,30.06,NNE,32,2.0,3.0,78,0.00,,,0.00,Wunderground v.1.15,2013-08-28 15:49:00,
2013-08-28 11:55:00,80.9,73.4,30.06,North,359,1.0,3.0,78,0.00,,,0.00,Wunderground v.1.15,2013-08-28 15:55:00,
2013-08-28 12:01:00,81.0,73.1,30.06,NNE,27,1.0,1.0,77,0.00,,,0.00,Wunderground v.1.15,2013-08-28 16:01:00,
2013-08-28 12:07:00,81.5,73.2,30.06,NE,37,1.0,4.0,76,0.00,,,0.00,Wunderground v.1.15,2013-08-28 16:07:00,
2013-08-28 12:13:00,80.6,73.5,30.06,NE,49,3.0,6.0,79,0.00,,,0.00,Wunderground v.1.15,2013-08-28 16:13:00,
2013-08-28 12:19:00,79.9,73.5,30.05,NE,45,5.0,6.0,81,0.00,,,0.00,Wunderground v.1.15,2013-08-28 16:19:00,
2013-08-28 12:25:00,79.5,73.2,30.05,NE,38,6.0,8.0,81,0.00,,,0.00,Wunderground v.1.15,2013-08-28 16:25:00,
2013-08-28 12:31:00,80.2,71.9,30.05,WSW,240,5.0,7.0,76,0.00,,,0.00,Wunderground v.1.15,2013-08-28 16:31:00,
2013-08-28 12:37:00,81.7,73.0,30.05,SSW,204,3.0,7.0,75,0.00,,,0.00,Wunderground v.1.15,2013-08-28 16:37:00,
2013-08-28 12:43:00,83.0,72.6,30.04,South,180,2.0,4.0,71,0.00,,,0.00,Wunderground v.1.15,2013-08-28 16:43:00,
2013-08-28 12:49:00,83.1,71.9,30.04,SSW,197,3.0,7.0,69,0.00,,,0.00,Wunderground v.1.15,2013-08-28 16:49:00,
2013-08-28 12:56:00,83.2,72.0,30.04,South,172,4.0,7.0,69,0.00,,,0.00,Wunderground v.1.15,2013-08-28 16:56:00,
2013-08-28 13:01:00,84.2,72.9,30.04,NE,55,2.0,3.0,69,0.00,,,0.00,Wunderground v.1.15,2013-08-28 17:01:00,
2013-08-28 13:07:00,83.8,73.0,30.04,West,263,4.0,16.0,70,0.00,,,0.00,Wunderground v.1.15,2013-08-28 17:07:00,
2013-08-28 13:13:00,83.9,71.8,30.04,South,180,5.0,6.0,67,0.00,,,0.00,Wunderground v.1.15,2013-08-28 17:13:00,
2013-08-28 13:19:00,84.1,72.0,30.03,SSE,158,3.0,5.0,67,0.00,,,0.00,Wunderground v.1.15,2013-08-28 17:19:00,
2013-08-28 13:25:00,85.2,70.7,30.03,South,187,2.0,5.0,62,0.00,,,0.00,Wunderground v.1.15,2013-08-28 17:25:00,
2013-08-28 13:31:00,85.5,72.4,30.03,South,179,2.0,4.0,65,0.00,,,0.00,Wunderground v.1.15,2013-08-28 17:31:00,
2013-08-28 13:37:00,85.9,72.3,30.03,South,170,2.0,5.0,64,0.00,,,0.00,Wunderground v.1.15,2013-08-28 17:37:00,
2013-08-28 13:43:00,85.5,71.5,30.02,South,186,4.0,8.0,63,0.00,,,0.00,Wunderground v.1.15,2013-08-28 17:43:00,
2013-08-28 13:50:00,85.9,70.9,30.03,SSW,195,4.0,5.0,61,0.00,,,0.00,Wunderground v.1.15,2013-08-28 17:50:00,
2013-08-28 13:55:00,85.5,71.0,30.03,NW,321,3.0,5.0,62,0.00,,,0.00,Wunderground v.1.15,2013-08-28 17:55:00,
2013-08-28 14:01:00,85.7,70.7,30.02,SW,231,2.0,3.0,61,0.00,,,0.00,Wunderground v.1.15,2013-08-28 18:01:00,
2013-08-28 14:07:00,85.7,71.2,30.02,SW,218,2.0,3.0,62,0.00,,,0.00,Wunderground v.1.15,2013-08-28 18:07:00,
2013-08-28 14:13:00,85.6,71.1,30.02,South,173,3.0,5.0,62,0.00,,,0.00,Wunderground v.1.15,2013-08-28 18:13:00,
2013-08-28 14:20:00,84.7,71.6,30.02,SSW,207,5.0,5.0,65,0.00,,,0.00,Wunderground v.1.15,2013-08-28 18:20:00,
2013-08-28 14:25:00,84.2,72.0,30.02,SSW,204,6.0,6.0,67,0.00,,,0.00,Wunderground v.1.15,2013-08-28 18:25:00,
2013-08-28 14:31:00,85.1,72.5,30.01,South,180,3.0,7.0,66,0.00,,,0.00,Wunderground v.1.15,2013-08-28 18:31:00,
2013-08-28 14:37:00,85.1,70.1,30.01,SSE,156,3.0,7.0,61,0.00,,,0.00,Wunderground v.1.15,2013-08-28 18:37:00,
2013-08-28 14:43:00,85.2,70.2,30.01,SSW,210,3.0,5.0,61,0.00,,,0.00,Wunderground v.1.15,2013-08-28 18:43:00,
2013-08-28 14:49:00,85.3,71.3,30.01,SSW,211,4.0,4.0,63,0.00,,,0.00,Wunderground v.1.15,2013-08-28 18:49:00,
2013-08-28 14:56:00,85.2,70.2,30.01,SSW,211,5.0,6.0,61,0.00,,,0.00,Wunderground v.1.15,2013-08-28 18:56:00,
2013-08-28 15:01:00,85.3,70.8,30.00,South,170,4.0,4.0,62,0.00,,,0.00,Wunderground v.1.15,2013-08-28 19:01:00,
2013-08-28 15:08:00,85.7,69.7,30.00,South,190,4.0,8.0,59,0.00,,,0.00,Wunderground v.1.15,2013-08-28 19:08:00,
2013-08-28 15:13:00,86.2,71.6,30.00,SW,217,5.0,8.0,62,0.00,,,0.00,Wunderground v.1.15,2013-08-28 19:13:00,
2013-08-28 15:20:00,86.2,69.7,30.00,SSW,205,6.0,9.0,58,0.00,,,0.00,Wunderground v.1.15,2013-08-28 19:20:00,
2013-08-28 15:25:00,85.9,70.4,29.99,SSW,193,7.0,9.0,60,0.00,,,0.00,Wunderground v.1.15,2013-08-28 19:25:00,
2013-08-28 15:31:00,85.8,69.8,29.99,South,186,7.0,7.0,59,0.00,,,0.00,Wunderground v.1.15,2013-08-28 19:31:00,
2013-08-28 15:37:00,86.1,69.6,29.99,SSW,205,6.0,7.0,58,0.00,,,0.00,Wunderground v.1.15,2013-08-28 19:37:00,
2013-08-28 15:43:00,86.2,70.2,29.99,SSW,194,5.0,7.0,59,0.00,,,0.00,Wunderground v.1.15,2013-08-28 19:43:00,
2013-08-28 15:49:00,85.9,70.9,29.99,WSW,243,5.0,5.0,61,0.00,,,0.00,Wunderground v.1.15,2013-08-28 19:49:00,
2013-08-28 15:56:00,86.2,70.7,29.99,SSW,207,5.0,8.0,60,0.00,,,0.00,Wunderground v.1.15,2013-08-28 19:56:00,
2013-08-28 16:01:00,86.0,69.5,29.99,SSW,197,6.0,7.0,58,0.00,,,0.00,Wunderground v.1.15,2013-08-28 20:01:00,
2013-08-28 16:07:00,86.1,70.6,29.99,SW,221,6.0,7.0,60,0.00,,,0.00,Wunderground v.1.15,2013-08-28 20:07:00,
2013-08-28 16:13:00,86.0,71.5,29.99,SSW,212,6.0,7.0,62,0.00,,,0.00,Wunderground v.1.15,2013-08-28 20:13:00,
2013-08-28 16:19:00,85.8,70.8,29.99,SW,219,5.0,5.0,61,0.00,,,0.00,Wunderground v.1.15,2013-08-28 20:19:00,
2013-08-28 16:25:00,86.4,71.4,29.98,SW,216,6.0,6.0,61,0.00,,,0.00,Wunderground v.1.15,2013-08-28 20:25:00,
2013-08-28 16:31:00,87.0,70.4,29.98,SW,214,4.0,8.0,58,0.00,,,0.00,Wunderground v.1.15,2013-08-28 20:31:00,
2013-08-28 16:37:00,86.8,71.2,29.98,SW,222,5.0,9.0,60,0.00,,,0.00,Wunderground v.1.15,2013-08-28 20:37:00,
2013-08-28 16:43:00,86.7,70.7,29.98,SSW,205,6.0,7.0,59,0.00,,,0.00,Wunderground v.1.15,2013-08-28 20:43:00,
2013-08-28 16:49:00,86.5,70.5,29.98,South,191,6.0,9.0,59,0.00,,,0.00,Wunderground v.1.15,2013-08-28 20:49:00,
2013-08-28 16:55:00,86.3,70.3,29.98,SSW,197,6.0,9.0,59,0.00,,,0.00,Wunderground v.1.15,2013-08-28 20:55:00,
2013-08-28 17:01:00,86.4,70.9,29.98,South,190,6.0,6.0,60,0.00,,,0.00,Wunderground v.1.15,2013-08-28 21:01:00,
2013-08-28 17:07:00,86.6,70.1,29.98,SSW,193,7.0,10.0,58,0.00,,,0.00,Wunderground v.1.15,2013-08-28 21:07:00,
2013-08-28 17:13:00,86.9,69.8,29.98,SSW,208,6.0,7.0,57,0.00,,,0.00,Wunderground v.1.15,2013-08-28 21:13:00,
2013-08-28 17:20:00,86.8,70.8,29.98,SW,218,5.0,6.0,59,0.00,,,0.00,Wunderground v.1.15,2013-08-28 21:20:00,
2013-08-28 17:26:00,87.0,71.4,29.98,SSW,201,4.0,6.0,60,0.00,,,0.00,Wunderground v.1.15,2013-08-28 21:26:00,
2013-08-28 17:32:00,87.2,71.1,29.98,South,176,3.0,7.0,59,0.00,,,0.00,Wunderground v.1.15,2013-08-28 21:32:00,
2013-08-28 17:37:00,87.2,71.1,29.97,South,191,5.0,7.0,59,0.00,,,0.00,Wunderground v.1.15,2013-08-28 21:37:00,
2013-08-28 17:43:00,86.9,71.3,29.98,SW,222,5.0,6.0,60,0.00,,,0.00,Wunderground v.1.15,2013-08-28 21:43:00,
2013-08-28 17:49:00,86.9,70.8,29.98,SSW,198,5.0,6.0,59,0.00,,,0.00,Wunderground v.1.15,2013-08-28 21:49:00,
2013-08-28 17:55:00,86.7,70.7,29.97,SW,216,5.0,8.0,59,0.00,,,0.00,Wunderground v.1.15,2013-08-28 21:55:00,
2013-08-28 18:01:00,86.9,71.3,29.97,SSW,193,4.0,5.0,60,0.00,,,0.00,Wunderground v.1.15,2013-08-28 22:01:00,
2013-08-28 18:07:00,87.0,70.9,29.97,SW,215,3.0,5.0,59,0.00,,,0.00,Wunderground v.1.15,2013-08-28 22:07:00,
2013-08-28 18:13:00,86.7,69.6,29.97,South,186,5.0,9.0,57,0.00,,,0.00,Wunderground v.1.15,2013-08-28 22:13:00,
2013-08-28 18:19:00,86.2,70.2,29.97,SSW,201,6.0,6.0,59,0.00,,,0.00,Wunderground v.1.15,2013-08-28 22:19:00,
2013-08-28 18:26:00,86.2,70.2,29.97,South,186,6.0,6.0,59,0.00,,,0.00,Wunderground v.1.15,2013-08-28 22:26:00,
2013-08-28 18:31:00,86.2,71.2,29.97,SSW,208,4.0,6.0,61,0.00,,,0.00,Wunderground v.1.15,2013-08-28 22:31:00,
2013-08-28 18:37:00,85.9,69.9,29.97,SSW,194,4.0,6.0,59,0.00,,,0.00,Wunderground v.1.15,2013-08-28 22:37:00,
2013-08-28 18:44:00,85.8,70.8,29.97,SSW,200,5.0,5.0,61,0.00,,,0.00,Wunderground v.1.15,2013-08-28 22:44:00,
2013-08-28 18:49:00,85.7,70.7,29.97,SSW,200,4.0,4.0,61,0.00,,,0.00,Wunderground v.1.15,2013-08-28 22:49:00,
2013-08-28 18:55:00,85.4,70.4,29.97,SSW,200,4.0,4.0,61,0.00,,,0.00,Wunderground v.1.15,2013-08-28 22:55:00,
2013-08-28 19:01:00,85.2,70.2,29.97,SW,214,3.0,5.0,61,0.00,,,0.00,Wunderground v.1.15,2013-08-28 23:01:00,
2013-08-28 19:07:00,85.0,70.0,29.97,SSW,195,4.0,5.0,61,0.00,,,0.00,Wunderground v.1.15,2013-08-28 23:07:00,
2013-08-28 19:13:00,84.8,70.3,29.97,SSW,204,4.0,5.0,62,0.00,,,0.00,Wunderground v.1.15,2013-08-28 23:13:00,
2013-08-28 19:19:00,84.6,70.1,29.97,SSW,195,3.0,3.0,62,0.00,,,0.00,Wunderground v.1.15,2013-08-28 23:19:00,
2013-08-28 19:25:00,84.3,69.9,29.97,SW,215,3.0,3.0,62,0.00,,,0.00,Wunderground v.1.15,2013-08-28 23:25:00,
2013-08-28 19:31:00,84.1,70.1,29.97,SSW,197,2.0,2.0,63,0.00,,,0.00,Wunderground v.1.15,2013-08-28 23:31:00,
2013-08-28 19:37:00,83.7,70.2,29.97,South,191,2.0,2.0,64,0.00,,,0.00,Wunderground v.1.15,2013-08-28 23:37:00,
2013-08-28 19:43:00,83.2,70.2,29.97,SSW,207,2.0,2.0,65,0.00,,,0.00,Wunderground v.1.15,2013-08-28 23:43:00,
2013-08-28 19:49:00,82.8,70.3,29.97,SW,217,1.0,1.0,66,0.00,,,0.00,Wunderground v.1.15,2013-08-28 23:49:00,
2013-08-28 19:55:00,82.3,70.2,29.97,SW,217,0.0,1.0,67,0.00,,,0.00,Wunderground v.1.15,2013-08-28 23:55:00,
2013-08-28 20:01:00,81.7,69.7,29.97,SW,217,1.0,2.0,67,0.00,,,0.00,Wunderground v.1.15,2013-08-29 00:01:00,
2013-08-28 20:07:00,81.3,69.7,29.98,SSW,213,2.0,2.0,68,0.00,,,0.00,Wunderground v.1.15,2013-08-29 00:07:00,
2013-08-28 20:13:00,80.8,70.1,29.98,SSW,207,2.0,2.0,70,0.00,,,0.00,Wunderground v.1.15,2013-08-29 00:13:00,
2013-08-28 20:19:00,80.4,70.1,29.98,SSW,207,2.0,2.0,71,0.00,,,0.00,Wunderground v.1.15,2013-08-29 00:19:00,
2013-08-28 20:25:00,80.1,70.3,29.98,SSW,208,2.0,2.0,72,0.00,,,0.00,Wunderground v.1.15,2013-08-29 00:25:00,
2013-08-28 20:31:00,79.8,70.0,29.98,SW,217,2.0,3.0,72,0.00,,,0.00,Wunderground v.1.15,2013-08-29 00:31:00,
2013-08-28 20:38:00,79.5,70.1,29.98,SW,215,2.0,3.0,73,0.00,,,0.00,Wunderground v.1.15,2013-08-29 00:38:00,
2013-08-28 20:44:00,79.2,70.2,29.98,SW,215,3.0,3.0,74,0.00,,,0.00,Wunderground v.1.15,2013-08-29 00:44:00,
2013-08-28 20:49:00,79.0,70.4,29.98,SW,214,3.0,3.0,75,0.00,,,0.00,Wunderground v.1.15,2013-08-29 00:49:00,
2013-08-28 20:55:00,78.8,70.6,29.98,SW,221,3.0,4.0,76,0.00,,,0.00,Wunderground v.1.15,2013-08-29 00:55:00,
2013-08-28 21:01:00,78.5,70.3,29.98,SW,215,2.0,3.0,76,0.00,,,0.00,Wunderground v.1.15,2013-08-29 01:01:00,
2013-08-28 21:07:00,78.6,70.4,29.98,SW,214,2.0,3.0,76,0.00,,,0.00,Wunderground v.1.15,2013-08-29 01:07:00,
2013-08-28 21:14:00,78.3,70.5,29.98,SW,222,2.0,2.0,77,0.00,,,0.00,Wunderground v.1.15,2013-08-29 01:14:00,
2013-08-28 21:19:00,78.0,70.6,29.98,SSW,212,1.0,2.0,78,0.00,,,0.00,Wunderground v.1.15,2013-08-29 01:19:00,
2013-08-28 21:25:00,78.3,70.9,29.99,SSW,208,2.0,3.0,78,0.00,,,0.00,Wunderground v.1.15,2013-08-29 01:25:00,
2013-08-28 21:31:00,78.0,70.6,29.99,SSW,211,3.0,3.0,78,0.00,,,0.00,Wunderground v.1.15,2013-08-29 01:31:00,
2013-08-28 21:37:00,77.7,71.0,29.99,SW,222,3.0,4.0,80,0.00,,,0.00,Wunderground v.1.15,2013-08-29 01:37:00,
2013-08-28 21:43:00,77.7,71.0,29.99,SW,215,3.0,3.0,80,0.00,,,0.00,Wunderground v.1.15,2013-08-29 01:43:00,
2013-08-28 21:49:00,77.6,70.9,29.99,SW,219,2.0,2.0,80,0.00,,,0.00,Wunderground v.1.15,2013-08-29 01:49:00,
2013-08-28 21:55:00,77.4,70.7,30.00,SW,222,2.0,2.0,80,0.00,,,0.00,Wunderground v.1.15,2013-08-29 01:55:00,
2013-08-28 22:02:00,77.0,70.7,30.00,SW,219,2.0,2.0,81,0.00,,,0.00,Wunderground v.1.15,2013-08-29 02:02:00,
2013-08-28 22:07:00,76.9,70.6,30.00,SW,219,2.0,2.0,81,0.00,,,0.00,Wunderground v.1.15,2013-08-29 02:07:00,
2013-08-28 22:13:00,76.5,70.6,30.00,SSW,211,1.0,2.0,82,0.00,,,0.00,Wunderground v.1.15,2013-08-29 02:13:00,
2013-08-28 22:20:00,76.7,70.8,30.00,SW,214,2.0,2.0,82,0.00,,,0.00,Wunderground v.1.15,2013-08-29 02:20:00,
2013-08-28 22:25:00,76.6,70.7,30.00,SSW,212,2.0,2.0,82,0.00,,,0.00,Wunderground v.1.15,2013-08-29 02:25:00,
2013-08-28 22:31:00,76.4,70.9,30.00,SSW,207,2.0,2.0,83,0.00,,,0.00,Wunderground v.1.15,2013-08-29 02:31:00,
2013-08-28 22:37:00,76.3,70.8,30.00,SSW,211,2.0,2.0,83,0.00,,,0.00,Wunderground v.1.15,2013-08-29 02:37:00,
2013-08-28 22:43:00,76.0,70.8,30.00,SSW,211,2.0,2.0,84,0.00,,,0.00,Wunderground v.1.15,2013-08-29 02:43:00,
2013-08-28 22:49:00,75.7,70.9,30.01,SW,215,2.0,3.0,85,0.00,,,0.00,Wunderground v.1.15,2013-08-29 02:49:00,
2013-08-28 22:56:00,75.5,70.7,30.00,SSW,200,3.0,3.0,85,0.00,,,0.00,Wunderground v.1.15,2013-08-29 02:56:00,
2013-08-28 23:02:00,75.7,70.9,30.00,SSW,210,3.0,3.0,85,0.00,,,0.00,Wunderground v.1.15,2013-08-29 03:02:00,
2013-08-28 23:07:00,75.8,71.0,30.00,SSW,211,2.0,3.0,85,0.00,,,0.00,Wunderground v.1.15,2013-08-29 03:07:00,
2013-08-28 23:13:00,75.6,70.8,30.00,SSW,205,2.0,2.0,85,0.00,,,0.00,Wunderground v.1.15,2013-08-29 03:13:00,
2013-08-28 23:19:00,75.7,70.9,30.00,SSW,211,2.0,2.0,85,0.00,,,0.00,Wunderground v.1.15,2013-08-29 03:19:00,
2013-08-28 23:26:00,75.7,70.5,30.00,SSW,205,2.0,2.0,84,0.00,,,0.00,Wunderground v.1.15,2013-08-29 03:26:00,
2013-08-28 23:31:00,75.8,70.6,29.99,SSW,211,2.0,2.0,84,0.00,,,0.00,Wunderground v.1.15,2013-08-29 03:31:00,
2013-08-28 23:37:00,75.7,70.5,29.99,SSW,211,2.0,3.0,84,0.00,,,0.00,Wunderground v.1.15,2013-08-29 03:37:00,
2013-08-28 23:43:00,75.6,70.4,29.99,SSW,211,2.0,2.0,84,0.00,,,0.00,Wunderground v.1.15,2013-08-29 03:43:00,
2013-08-28 23:49:00,75.6,70.4,29.99,SW,217,2.0,2.0,84,0.00,,,0.00,Wunderground v.1.15,2013-08-29 03:49:00,
2013-08-28 23:55:00,75.5,70.3,29.99,SSW,197,2.0,3.0,84,0.00,,,0.00,Wunderground v.1.15,2013-08-29 03:55:00,